createdAt,value
2022-08-30T00:03:09.024Z,20.3
2022-08-30T00:08:08.684Z,20
2022-08-30T00:13:18.927Z,20.1
2022-08-30T00:18:18.961Z,20
2022-08-30T00:24:08.650Z,19.8
2022-08-30T00:29:08.667Z,19.9
2022-08-30T00:34:08.694Z,19.7
2022-08-30T00:39:18.933Z,19.7
2022-08-30T00:44:18.961Z,19.6
2022-08-30T00:50:08.697Z,19.6
2022-08-30T00:55:18.933Z,19.3
2022-08-30T01:01:08.717Z,19
2022-08-30T01:06:18.938Z,19
2022-08-30T01:11:19.043Z,19.1
2022-08-30T01:17:08.646Z,19.3
2022-08-30T01:22:08.670Z,19.4
2022-08-30T01:27:18.942Z,19.5
2022-08-30T01:32:21.168Z,19.5
2022-08-30T01:38:08.681Z,19.6
2022-08-30T01:43:18.943Z,19.5
2022-08-30T01:48:18.934Z,19.5
2022-08-30T01:53:18.958Z,19.5
2022-08-30T01:59:08.656Z,19.5
2022-08-30T02:04:08.727Z,19.4
2022-08-30T02:09:08.686Z,19.3
2022-08-30T02:14:08.681Z,19.3
2022-08-30T02:19:19.172Z,19.1
2022-08-30T02:24:18.959Z,19
2022-08-30T02:29:18.955Z,18.7
2022-08-30T02:35:08.723Z,18.7
2022-08-30T02:40:19.004Z,18.5
2022-08-30T02:46:08.745Z,18.6
2022-08-30T02:51:18.966Z,18.6
2022-08-30T02:56:18.978Z,18.6
2022-08-30T03:01:19.077Z,18.6
2022-08-30T03:07:08.686Z,18.5
2022-08-30T03:12:08.693Z,18.4
2022-08-30T03:17:12.957Z,18.5
2022-08-30T03:22:18.973Z,18.5
2022-08-30T03:27:18.986Z,18.4
2022-08-30T03:33:08.768Z,18.4
2022-08-30T03:38:18.998Z,18.2
2022-08-30T03:44:08.786Z,18.1
2022-08-30T03:49:18.980Z,18.2
2022-08-30T03:54:19.014Z,18.1
2022-08-30T04:00:08.703Z,18
2022-08-30T04:05:18.996Z,18
2022-08-30T04:10:19.005Z,18.1
2022-08-30T04:15:19.010Z,17.9
2022-08-30T04:21:13.515Z,17.8
2022-08-30T04:26:08.728Z,18
2022-08-30T04:31:08.822Z,17.9
2022-08-30T04:36:18.984Z,17.9
2022-08-30T04:41:19.010Z,17.8
2022-08-30T04:47:08.704Z,17.8
2022-08-30T04:52:08.728Z,17.8
2022-08-30T04:57:19.024Z,17.7
2022-08-30T05:03:08.839Z,17.6
2022-08-30T05:08:23.235Z,17.6
2022-08-30T05:13:19.034Z,17.6
2022-08-30T05:19:08.705Z,17.7
2022-08-30T05:24:08.728Z,17.7
2022-08-30T05:29:19.018Z,17.8
2022-08-30T05:34:19.022Z,17.9
2022-08-30T05:40:10.923Z,18
2022-08-30T05:45:19.021Z,18.4
2022-08-30T05:51:08.734Z,18.7
2022-08-30T05:56:19.005Z,18.8
2022-08-30T06:02:08.886Z,18.9
2022-08-30T06:07:21.162Z,19
2022-08-30T06:13:08.759Z,19.2
2022-08-30T06:18:19.048Z,19.3
2022-08-30T06:24:08.754Z,19.5
2022-08-30T06:29:19.009Z,20
2022-08-30T06:35:08.747Z,20.7
2022-08-30T06:40:19.051Z,21.8
2022-08-30T06:45:19.031Z,23.2
2022-08-30T06:51:08.752Z,24.5
2022-08-30T06:56:08.758Z,25.2
2022-08-30T07:01:08.763Z,26.2
2022-08-30T07:06:08.805Z,26.7
2022-08-30T07:11:19.047Z,27.3
2022-08-30T07:17:08.747Z,27.6
2022-08-30T07:22:08.771Z,28.3
2022-08-30T07:27:19.032Z,28.5
2022-08-30T07:33:08.758Z,28.5
2022-08-30T07:38:19.038Z,30
2022-08-30T07:43:19.192Z,30.3
2022-08-30T07:49:10.832Z,31.4
2022-08-30T07:54:08.839Z,32.7
2022-08-30T07:59:19.050Z,33.6
2022-08-30T08:04:19.082Z,33.4
2022-08-30T08:10:08.769Z,33.2
2022-08-30T08:15:19.070Z,32.1
2022-08-30T08:21:19.075Z,31.5
2022-08-30T08:26:19.069Z,31.4
2022-08-30T08:31:19.137Z,31.3
2022-08-30T08:36:19.079Z,33
2022-08-30T08:41:19.109Z,33
2022-08-30T08:47:08.809Z,33.1
2022-08-30T08:52:19.071Z,33.8
2022-08-30T08:57:22.650Z,34.5
2022-08-30T09:02:19.080Z,33.6
2022-08-30T09:08:10.089Z,34.2
2022-08-30T09:13:19.562Z,33.3
2022-08-30T09:19:08.799Z,34.5
2022-08-30T09:24:08.831Z,35.5
2022-08-30T09:29:19.088Z,34.4
2022-08-30T09:34:19.084Z,34.3
2022-08-30T09:40:08.862Z,34.8
2022-08-30T09:45:08.829Z,34.3
2022-08-30T09:50:19.097Z,33.2
2022-08-30T09:55:19.109Z,32
2022-08-30T10:00:19.107Z,32.6
2022-08-30T10:06:08.821Z,33.2
2022-08-30T10:11:08.834Z,33.9
2022-08-30T10:16:08.844Z,33.7
2022-08-30T10:21:19.511Z,33.7
2022-08-30T10:26:19.358Z,33.2
2022-08-30T10:31:19.123Z,32.7
2022-08-30T10:37:08.817Z,32
2022-08-30T10:42:08.842Z,32.5
2022-08-30T10:47:23.082Z,32.8
2022-08-30T10:52:19.132Z,32.6
2022-08-30T10:58:08.888Z,32.5
2022-08-30T11:03:19.143Z,31.8
2022-08-30T11:09:08.873Z,32.8
2022-08-30T11:14:08.880Z,32.1
2022-08-30T11:19:19.144Z,32.2
2022-08-30T11:24:19.150Z,30.7
2022-08-30T11:30:08.854Z,32.1
2022-08-30T11:35:11.255Z,32.4
2022-08-30T11:45:08.888Z,32.4
2022-08-30T11:50:19.157Z,32.7
2022-08-30T11:56:08.854Z,32.4
2022-08-30T12:01:16.134Z,32.3
2022-08-30T12:06:19.145Z,32.1
2022-08-30T12:11:19.182Z,31.7
2022-08-30T12:17:08.873Z,31.2
2022-08-30T12:22:08.896Z,30.5
2022-08-30T12:27:19.165Z,30.8
2022-08-30T12:32:20.217Z,30.6
2022-08-30T12:38:08.910Z,30.8
2022-08-30T12:43:19.175Z,29.8
2022-08-30T12:49:08.937Z,29.6
2022-08-30T12:54:19.173Z,30.3
2022-08-30T12:59:19.210Z,30.2
2022-08-30T13:05:08.912Z,30.3
2022-08-30T13:10:08.936Z,30.4
2022-08-30T13:15:19.822Z,30.7
2022-08-30T13:21:08.916Z,30.5
2022-08-30T13:26:20.486Z,30.7
2022-08-30T13:32:15.963Z,29.5
2022-08-30T13:42:34.710Z,29.7
2022-08-30T13:48:08.958Z,29.9
2022-08-30T13:53:51.771Z,29.9
2022-08-30T13:58:19.512Z,29.9
2022-08-30T14:04:16.623Z,30
2022-08-30T14:09:09.522Z,30.1
2022-08-30T14:14:34.606Z,30.5
2022-08-30T14:19:19.250Z,30.6
2022-08-30T14:25:08.946Z,30.3
2022-08-30T14:30:08.942Z,30.4
2022-08-30T14:35:19.218Z,30.1
2022-08-30T14:41:08.964Z,29.7
2022-08-30T14:46:19.287Z,29.7
2022-08-30T14:52:08.982Z,29.8
2022-08-30T14:57:19.242Z,30
2022-08-30T15:03:08.963Z,30.3
2022-08-30T15:08:08.973Z,30.5
2022-08-30T15:13:19.257Z,30.4
2022-08-30T15:19:09.017Z,30.5
2022-08-30T15:24:09.042Z,30.5
2022-08-30T15:29:19.244Z,30.3
2022-08-30T15:34:19.251Z,30.4
2022-08-30T15:40:09.032Z,30.1
2022-08-30T15:45:08.946Z,30.1
2022-08-30T15:50:08.976Z,29.6
2022-08-30T15:55:19.254Z,29.7
2022-08-30T16:01:09.093Z,29.5
2022-08-30T16:06:19.246Z,29.8
2022-08-30T16:11:19.244Z,29.5
2022-08-30T16:16:19.371Z,29.3
2022-08-30T16:22:09.001Z,29.1
2022-08-30T16:27:19.264Z,28.9
2022-08-30T16:33:08.992Z,29
2022-08-30T16:38:08.994Z,28.8
2022-08-30T16:43:19.432Z,28.3
2022-08-30T16:48:19.269Z,28.4
2022-08-30T16:53:19.277Z,28.5
2022-08-30T16:59:11.320Z,28.4
2022-08-30T17:04:19.725Z,27.7
2022-08-30T17:10:09.004Z,27.8
2022-08-30T17:15:09.007Z,27.8
2022-08-30T17:20:19.293Z,27.5
2022-08-30T17:26:09.000Z,27.4
2022-08-30T17:31:09.373Z,27.3
2022-08-30T17:36:09.016Z,27
2022-08-30T17:41:19.292Z,26.9
2022-08-30T17:46:19.435Z,26.7
2022-08-30T17:52:08.987Z,26.6
2022-08-30T17:57:11.150Z,26.6
2022-08-30T18:02:11.274Z,26.5
2022-08-30T18:07:20.684Z,26.1
2022-08-30T18:12:19.360Z,25.8
2022-08-30T18:18:11.555Z,25.7
2022-08-30T18:23:09.053Z,25.6
2022-08-30T18:28:19.525Z,25.2
2022-08-30T18:34:12.484Z,25
2022-08-30T18:39:19.366Z,25
2022-08-30T18:44:27.731Z,24.9
2022-08-30T18:49:19.378Z,24.9
2022-08-30T18:55:09.042Z,24.9
2022-08-30T19:00:19.522Z,24.7
2022-08-30T19:05:19.458Z,24.7
2022-08-30T19:11:09.057Z,24.6
2022-08-30T19:16:19.431Z,24.5
2022-08-30T19:21:19.336Z,24
2022-08-30T19:26:19.551Z,24
2022-08-30T19:32:09.029Z,23.7
2022-08-30T19:37:09.045Z,23.8
2022-08-30T19:42:09.049Z,23.6
2022-08-30T19:47:09.074Z,23.4
2022-08-30T19:52:19.370Z,23.1
2022-08-30T19:57:19.360Z,23.3
2022-08-30T20:03:09.048Z,23
2022-08-30T20:08:09.057Z,23.1
2022-08-30T20:13:09.161Z,23.1
2022-08-30T20:18:19.352Z,23.3
2022-08-30T20:23:19.729Z,23.1
2022-08-30T20:28:19.394Z,23.2
2022-08-30T20:34:09.073Z,23.1
2022-08-30T20:39:19.350Z,23
2022-08-30T20:45:09.053Z,22.9
2022-08-30T20:50:09.081Z,22.7
2022-08-30T20:55:09.085Z,22.7
2022-08-30T21:00:19.614Z,22.5
2022-08-30T21:06:09.095Z,22.5
2022-08-30T21:11:19.351Z,22.6
2022-08-30T21:17:09.119Z,22.4
2022-08-30T21:22:09.101Z,22.4
2022-08-30T21:27:19.353Z,22.2
2022-08-30T21:32:19.368Z,22.2
2022-08-30T21:37:19.407Z,22.3
2022-08-30T21:43:09.070Z,22.2
2022-08-30T21:48:09.103Z,22.3
2022-08-30T21:53:09.114Z,22.3
2022-08-30T21:58:19.369Z,22.5
2022-08-30T22:03:26.314Z,22.4
2022-08-30T22:09:09.087Z,22.3
2022-08-30T22:14:09.369Z,22.1
2022-08-30T22:19:09.107Z,22.3
2022-08-30T22:24:19.395Z,22.2
2022-08-30T22:30:09.108Z,22.3
2022-08-30T22:35:09.115Z,22.3
2022-08-30T22:40:19.479Z,22.5
2022-08-30T22:46:09.148Z,22.6
2022-08-30T22:51:09.122Z,22.6
2022-08-30T22:56:09.121Z,22.6
2022-08-30T23:01:19.490Z,22.4
2022-08-30T23:07:09.110Z,22.5
2022-08-30T23:12:09.129Z,22.5
2022-08-30T23:17:19.505Z,22.5
2022-08-30T23:23:09.121Z,22.5
2022-08-30T23:28:20.737Z,22.5
2022-08-30T23:34:10.158Z,22.3
2022-08-30T23:39:09.102Z,22.2
2022-08-30T23:44:09.128Z,22.2
2022-08-30T23:49:19.409Z,21.9
2022-08-30T23:54:19.625Z,21.8
